Aviation Digital Data Service (ADDS)

Output produced by TAFs form (1128 UTC 19 January 2018)
found at http://www.aviationweather.gov/adds/tafs/
 
RJNK 191100Z 12002KT 9999 FEW030 BKN/// 02/M01 Q1019
TAF RJNK 191106Z 1912/2018 14004KT 9999 FEW030 
     BECMG 2000/2003 24006KT